| time (UTC) | temp F | wind direction | speed MPH | gust MPH | rain 1hr in | rain 24hr in | rain mn in | humidity % | barometer mb |
| 20260505090536 | 42 | 63 | 8.0 | 14.0 | 0.02 | 0.19 | 0.02 | 88 | 1010.9 |
| 20260505090048 | 42 | 44 | 8.0 | 13.0 | 0.02 | 0.19 | 0.02 | 89 | 1011.1 |
| 20260505085537 | 42 | 51 | 7.0 | 15.0 | 0.02 | 0.19 | 0.02 | 89 | 1011.1 |
| 20260505085036 | 42 | 62 | 8.0 | 15.0 | 0.02 | 0.19 | 0.02 | 89 | 1011.1 |
| 20260505084542 | 42 | 59 | 10.0 | 16.0 | 0.02 | 0.19 | 0.02 | 88 | 1011.1 |
| 20260505084037 | 43 | 60 | 9.0 | 17.0 | 0.02 | 0.19 | 0.02 | 88 | 1011.1 |
| 20260505083533 | 43 | 42 | 9.0 | 17.0 | 0.02 | 0.19 | 0.02 | 88 | 1011.2 |
| 20260505083038 | 43 | 37 | 10.0 | 16.0 | 0.02 | 0.19 | 0.02 | 88 | 1011.1 |
| 20260505082536 | 43 | 30 | 9.0 | 16.0 | 0.02 | 0.19 | 0.02 | 88 | 1011.2 |
| 20260505082036 | 44 | 74 | 7.0 | 14.0 | 0.01 | 0.18 | 0.01 | 87 | 1011.2 |
| 20260505081543 | 44 | 65 | 9.0 | 14.0 | 0.01 | 0.18 | 0.01 | 86 | 1011.3 |
| 20260505081040 | 44 | 43 | 8.0 | 18.0 | 0.00 | 0.17 | 0.00 | 85 | 1011.2 |
| 20260505080538 | 46 | 36 | 9.0 | 18.0 | 0.00 | 0.17 | 0.00 | 84 | 1011.2 |
| 20260505080045 | 47 | 35 | 12.0 | 17.0 | 0.00 | 0.17 | 0.00 | 84 | 1011.3 |
| 20260505075535 | 47 | 42 | 6.0 | 11.0 | 0.00 | 0.17 | 0.00 | 84 | 1011.3 |
| 20260505075036 | 47 | 47 | 3.0 | 5.0 | 0.00 | 0.17 | 0.00 | 84 | 1011.3 |
| 20260505074548 | 47 | 78 | 2.0 | 4.0 | 0.00 | 0.17 | 0.00 | 84 | 1011.3 |
| 20260505074036 | 48 | 130 | 2.0 | 3.0 | 0.00 | 0.17 | 0.00 | 84 | 1011.2 |
| 20260505073533 | 47 | 135 | 1.0 | 3.0 | 0.00 | 0.17 | 0.00 | 84 | 1011.3 |
| 20260505073053 | 47 | 140 | 1.0 | 3.0 | 0.00 | 0.17 | 0.00 | 84 | 1011.2 |
| 20260505072536 | 47 | 0 | 0.0 | 4.0 | 0.00 | 0.17 | 0.00 | 84 | 1011.2 |
| 20260505072036 | 48 | 147 | 1.0 | 4.0 | 0.00 | 0.17 | 0.00 | 84 | 1011.2 |
| 20260505071554 | 48 | 147 | 1.0 | 4.0 | 0.00 | 0.17 | 0.00 | 85 | 1011.2 |
| 20260505071036 | 48 | 146 | 2.0 | 6.0 | 0.00 | 0.17 | 0.00 | 85 | 1011.0 |
| 20260505070538 | 48 | 147 | 2.0 | 6.0 | 0.00 | 0.17 | 0.00 | 85 | 1010.9 |
| 20260505070045 | 48 | 163 | 2.0 | 7.0 | 0.00 | 0.17 | 0.00 | 85 | 1010.9 |
| 20260505065535 | 48 | 159 | 3.0 | 8.0 | 0.00 | 0.17 | 0.00 | 85 | 1010.9 |
| 20260505065040 | 48 | 173 | 5.0 | 9.0 | 0.00 | 0.17 | 0.00 | 85 | 1010.9 |
| 20260505064543 | 48 | 159 | 5.0 | 9.0 | 0.00 | 0.17 | 0.00 | 85 | 1010.9 |
| 20260505064042 | 48 | 176 | 4.0 | 8.0 | 0.00 | 0.17 | 0.00 | 86 | 1011.0 |
| 20260505063536 | 48 | 171 | 3.0 | 10.0 | 0.00 | 0.17 | 0.00 | 86 | 1011.0 |
| 20260505063050 | 48 | 153 | 4.0 | 10.0 | 0.00 | 0.17 | 0.00 | 86 | 1011.0 |
| 20260505062537 | 48 | 155 | 4.0 | 7.0 | 0.00 | 0.17 | 0.00 | 86 | 1011.1 |
| 20260505062035 | 49 | 140 | 3.0 | 7.0 | 0.00 | 0.17 | 0.00 | 87 | 1011.1 |
| 20260505061551 | 49 | 148 | 3.0 | 8.0 | 0.00 | 0.17 | 0.00 | 87 | 1011.2 |
| 20260505061036 | 49 | 140 | 4.0 | 9.0 | 0.00 | 0.17 | 0.00 | 87 | 1011.1 |
| 20260505060540 | 49 | 138 | 5.0 | 9.0 | 0.00 | 0.17 | 0.00 | 88 | 1011.1 |
| 20260505060051 | 49 | 151 | 3.0 | 6.0 | 0.00 | 0.17 | 0.00 | 89 | 1011.1 |
| 20260505055537 | 49 | 150 | 3.0 | 6.0 | 0.00 | 0.17 | 0.17 | 89 | 1011.1 |
| 20260505055038 | 49 | 0 | 1.0 | 7.0 | 0.00 | 0.17 | 0.17 | 89 | 1011.2 |
| 20260505054551 | 49 | 161 | 3.0 | 9.0 | 0.00 | 0.17 | 0.17 | 89 | 1011.0 |
| 20260505054037 | 49 | 139 | 3.0 | 9.0 | 0.00 | 0.17 | 0.17 | 89 | 1011.0 |
| 20260505053537 | 49 | 136 | 4.0 | 8.0 | 0.00 | 0.17 | 0.17 | 89 | 1010.9 |
| 20260505053055 | 49 | 142 | 5.0 | 8.0 | 0.01 | 0.17 | 0.17 | 89 | 1011.1 |
| 20260505052537 | 49 | 148 | 3.0 | 6.0 | 0.02 | 0.17 | 0.17 | 89 | 1011.1 |
| 20260505052037 | 49 | 163 | 4.0 | 6.0 | 0.03 | 0.17 | 0.17 | 89 | 1011.0 |
| 20260505051558 | 49 | 207 | 2.0 | 4.0 | 0.04 | 0.17 | 0.17 | 89 | 1011.0 |
| 20260505051040 | 49 | 207 | 2.0 | 4.0 | 0.04 | 0.17 | 0.17 | 88 | 1011.0 |
| 20260505050533 | 49 | 207 | 0.0 | 3.0 | 0.05 | 0.17 | 0.17 | 88 | 1011.0 |
| 20260505041547 | 50 | 259 | 3.0 | 10.0 | 0.12 | 0.13 | 0.13 | 84 | 1011.2 |
| 20260505041033 | 50 | 246 | 4.0 | 10.0 | 0.12 | 0.13 | 0.13 | 83 | 1011.1 |
| 20260505040537 | 51 | 269 | 6.0 | 10.0 | 0.12 | 0.12 | 0.12 | 82 | 1011.0 |
| 20260505040050 | 51 | 246 | 4.0 | 8.0 | 0.10 | 0.10 | 0.10 | 82 | 1010.9 |
| 20260505035537 | 52 | 246 | 3.0 | 7.0 | 0.09 | 0.09 | 0.09 | 81 | 1010.9 |
| 20260505035036 | 52 | 284 | 2.0 | 5.0 | 0.09 | 0.09 | 0.09 | 80 | 1010.9 |
| 20260505034552 | 52 | 0 | 1.0 | 3.0 | 0.07 | 0.07 | 0.07 | 79 | 1011.0 |
| 20260505034037 | 52 | 302 | 1.0 | 4.0 | 0.07 | 0.07 | 0.07 | 79 | 1011.0 |
| 20260505033537 | 52 | 308 | 2.0 | 4.0 | 0.06 | 0.06 | 0.06 | 78 | 1010.9 |
| 20260505033049 | 52 | 319 | 2.0 | 4.0 | 0.05 | 0.05 | 0.05 | 77 | 1010.8 |
| 20260505032537 | 53 | 327 | 2.0 | 3.0 | 0.03 | 0.03 | 0.03 | 77 | 1010.7 |
| 20260505032040 | 53 | 50 | 0.0 | 2.0 | 0.02 | 0.02 | 0.02 | 77 | 1010.6 |
| 20260505031549 | 53 | 0 | 0.0 | 3.0 | 0.01 | 0.01 | 0.01 | 76 | 1010.6 |
| 20260505031036 | 53 | 78 | 1.0 | 3.0 | 0.01 | 0.01 | 0.01 | 74 | 1010.6 |
| 20260505030538 | 53 | 97 | 0.0 | 3.0 | 0.00 | 0.00 | 0.00 | 73 | 1010.3 |
| 20260505030050 | 53 | 0 | 1.0 | 3.0 | 0.00 | 0.00 | 0.00 | 72 | 1010.2 |
| 20260505025535 | 53 | 97 | 2.0 | 3.0 | 0.00 | 0.00 | 0.00 | 70 | 1010.1 |
| 20260505025038 | 53 | 105 | 0.0 | 2.0 | 0.00 | 0.00 | 0.00 | 69 | 1010.0 |
| 20260505024600 | 53 | 105 | 0.0 | 2.0 | 0.00 | 0.00 | 0.00 | 69 | 1010.0 |
| 20260505024037 | 53 | 0 | 0.0 | 4.0 | 0.00 | 0.00 | 0.00 | 69 | 1010.1 |
| 20260505023540 | 53 | 0 | 0.0 | 6.0 | 0.00 | 0.00 | 0.00 | 69 | 1010.1 |
| 20260505023045 | 53 | 105 | 2.0 | 8.0 | 0.00 | 0.00 | 0.00 | 69 | 1010.1 |
| 20260505022537 | 53 | 122 | 4.0 | 8.0 | 0.00 | 0.00 | 0.00 | 70 | 1010.1 |
| 20260505022037 | 54 | 98 | 4.0 | 8.0 | 0.00 | 0.00 | 0.00 | 70 | 1010.1 |
| 20260505021542 | 54 | 69 | 2.0 | 4.0 | 0.00 | 0.00 | 0.00 | 69 | 1010.1 |
| 20260505021036 | 54 | 9 | 2.0 | 8.0 | 0.00 | 0.00 | 0.00 | 69 | 1010.2 |
| 20260505020536 | 54 | 349 | 3.0 | 10.0 | 0.00 | 0.00 | 0.00 | 68 | 1010.2 |
| 20260505020040 | 55 | 33 | 3.0 | 11.0 | 0.00 | 0.00 | 0.00 | 68 | 1010.2 |
| 20260505015537 | 56 | 312 | 4.0 | 11.0 | 0.00 | 0.00 | 0.00 | 65 | 1010.1 |
| 20260505015040 | 56 | 300 | 3.0 | 6.0 | 0.00 | 0.00 | 0.00 | 61 | 1010.0 |
| 20260505014549 | 57 | 302 | 2.0 | 7.0 | 0.00 | 0.00 | 0.00 | 61 | 1009.8 |
| 20260505014040 | 57 | 302 | 2.0 | 10.0 | 0.00 | 0.00 | 0.00 | 62 | 1009.7 |
| 20260505013536 | 57 | 290 | 5.0 | 10.0 | 0.00 | 0.00 | 0.00 | 59 | 1009.8 |
| 20260505013101 | 58 | 286 | 5.0 | 12.0 | 0.00 | 0.00 | 0.00 | 56 | 1009.9 |
| 20260505012539 | 59 | 288 | 7.0 | 13.0 | 0.00 | 0.00 | 0.00 | 53 | 1009.8 |
| 20260505012036 | 59 | 298 | 8.0 | 13.0 | 0.00 | 0.00 | 0.00 | 48 | 1009.5 |
| 20260505011543 | 59 | 292 | 8.0 | 12.0 | 0.00 | 0.00 | 0.00 | 46 | 1009.4 |
| 20260505011037 | 59 | 326 | 7.0 | 11.0 | 0.00 | 0.00 | 0.00 | 45 | 1009.2 |
| 20260505010537 | 60 | 324 | 7.0 | 11.0 | 0.00 | 0.00 | 0.00 | 44 | 1008.9 |
| 20260505010043 | 60 | 307 | 4.0 | 11.0 | 0.00 | 0.00 | 0.00 | 43 | 1008.7 |
| 20260505005537 | 60 | 332 | 4.0 | 12.0 | 0.00 | 0.00 | 0.00 | 42 | 1008.6 |
| 20260505005037 | 60 | 352 | 8.0 | 16.0 | 0.00 | 0.00 | 0.00 | 43 | 1008.3 |
| 20260505004549 | 60 | 360 | 9.0 | 16.0 | 0.00 | 0.00 | 0.00 | 44 | 1008.4 |
| 20260505004036 | 60 | 5 | 6.0 | 12.0 | 0.00 | 0.00 | 0.00 | 43 | 1008.5 |
| 20260505003536 | 60 | 300 | 4.0 | 15.0 | 0.00 | 0.00 | 0.00 | 43 | 1008.5 |
| 20260505003047 | 59 | 360 | 9.0 | 15.0 | 0.00 | 0.00 | 0.00 | 44 | 1008.5 |
| 20260505002536 | 60 | 13 | 9.0 | 15.0 | 0.00 | 0.00 | 0.00 | 44 | 1008.5 |
| 20260505002037 | 60 | 5 | 7.0 | 13.0 | 0.00 | 0.00 | 0.00 | 44 | 1008.5 |
| 20260505001544 | 60 | 360 | 6.0 | 13.0 | 0.00 | 0.00 | 0.00 | 43 | 1008.5 |
| 20260505001038 | 61 | 19 | 6.0 | 14.0 | 0.00 | 0.00 | 0.00 | 43 | 1008.6 |
| 20260505000537 | 61 | 325 | 7.0 | 14.0 | 0.00 | 0.00 | 0.00 | 41 | 1008.5 |
| 20260505000053 | 62 | 5 | 8.0 | 12.0 | 0.00 | 0.00 | 0.00 | 37 | 1008.5 |
| 20260504235537 | 62 | 300 | 7.0 | 11.0 | 0.00 | 0.00 | 0.00 | 38 | 1008.6 |
| 20260504235036 | 62 | 12 | 3.0 | 10.0 | 0.00 | 0.00 | 0.00 | 37 | 1008.6 |
| 20260504234549 | 62 | 298 | 4.0 | 10.0 | 0.00 | 0.00 | 0.00 | 38 | 1008.6 |
| 20260504234036 | 62 | 0 | 1.0 | 19.0 | 0.00 | 0.00 | 0.00 | 37 | 1008.7 |
| 20260504233533 | 63 | 225 | 8.0 | 19.0 | 0.00 | 0.00 | 0.00 | 37 | 1008.6 |
| 20260504233043 | 63 | 313 | 11.0 | 17.0 | 0.00 | 0.00 | 0.00 | 36 | 1008.8 |
| 20260504232534 | 64 | 38 | 2.0 | 10.0 | 0.00 | 0.00 | 0.00 | 33 | 1008.6 |
| 20260504232035 | 64 | 9 | 5.0 | 10.0 | 0.00 | 0.00 | 0.00 | 33 | 1008.7 |
| 20260504231539 | 64 | 309 | 5.0 | 12.0 | 0.00 | 0.00 | 0.00 | 32 | 1008.5 |
| 20260504231035 | 64 | 5 | 7.0 | 13.0 | 0.00 | 0.00 | 0.00 | 32 | 1008.2 |
| 20260504230534 | 64 | 352 | 7.0 | 13.0 | 0.00 | 0.00 | 0.00 | 32 | 1007.9 |
| 20260504230037 | 64 | 5 | 9.0 | 15.0 | 0.00 | 0.00 | 0.00 | 32 | 1007.8 |
| 20260504225534 | 64 | 5 | 8.0 | 15.0 | 0.00 | 0.00 | 0.00 | 32 | 1007.6 |
| 20260504225036 | 64 | 5 | 8.0 | 15.0 | 0.00 | 0.00 | 0.00 | 31 | 1007.6 |
| 20260504224543 | 64 | 24 | 9.0 | 18.0 | 0.00 | 0.00 | 0.00 | 31 | 1007.4 |
| 20260504224034 | 65 | 36 | 11.0 | 19.0 | 0.00 | 0.00 | 0.00 | 31 | 1007.3 |
| 20260504223533 | 65 | 5 | 11.0 | 19.0 | 0.00 | 0.00 | 0.00 | 30 | 1007.2 |
| 20260504223050 | 65 | 15 | 12.0 | 19.0 | 0.00 | 0.00 | 0.00 | 29 | 1007.2 |
| 20260504222533 | 65 | 26 | 10.0 | 19.0 | 0.00 | 0.00 | 0.00 | 29 | 1007.2 |
| 20260504222033 | 66 | 27 | 14.0 | 19.0 | 0.00 | 0.00 | 0.00 | 28 | 1007.2 |
| 20260504221541 | 66 | 9 | 11.0 | 18.0 | 0.00 | 0.00 | 0.00 | 29 | 1007.2 |
| 20260504221036 | 66 | 35 | 10.0 | 20.0 | 0.00 | 0.00 | 0.00 | 28 | 1007.2 |
| 20260504220533 | 66 | 14 | 11.0 | 21.0 | 0.00 | 0.00 | 0.00 | 28 | 1007.1 |
| 20260504220042 | 66 | 22 | 14.0 | 21.0 | 0.00 | 0.00 | 0.00 | 28 | 1007.2 |
| 20260504215532 | 66 | 21 | 15.0 | 21.0 | 0.00 | 0.00 | 0.00 | 28 | 1007.3 |
| 20260504215034 | 66 | 333 | 8.0 | 23.0 | 0.00 | 0.00 | 0.00 | 29 | 1007.7 |
| 20260504214548 | 66 | 346 | 17.0 | 23.0 | 0.00 | 0.00 | 0.00 | 29 | 1008.0 |
| 20260504214034 | 66 | 5 | 14.0 | 19.0 | 0.00 | 0.00 | 0.00 | 29 | 1008.1 |
| 20260504213535 | 66 | 5 | 11.0 | 18.0 | 0.00 | 0.00 | 0.00 | 29 | 1008.1 |
| 20260504213044 | 66 | 19 | 10.0 | 18.0 | 0.00 | 0.00 | 0.00 | 29 | 1008.1 |
| 20260504212535 | 65 | 348 | 10.0 | 17.0 | 0.00 | 0.00 | 0.00 | 29 | 1008.1 |
| 20260504212035 | 65 | 303 | 9.0 | 25.0 | 0.00 | 0.00 | 0.00 | 31 | 1008.2 |
| 20260504211542 | 65 | 286 | 10.0 | 25.0 | 0.00 | 0.00 | 0.00 | 34 | 1008.4 |
| 20260504211034 | 65 | 111 | 14.0 | 24.0 | 0.00 | 0.00 | 0.00 | 30 | 1008.3 |
| 20260504210537 | 66 | 298 | 11.0 | 22.0 | 0.00 | 0.00 | 0.00 | 32 | 1008.0 |
| 20260504210044 | 68 | 308 | 14.0 | 21.0 | 0.00 | 0.00 | 0.00 | 30 | 1007.8 |
| 20260504205537 | 68 | 295 | 12.0 | 17.0 | 0.00 | 0.00 | 0.00 | 24 | 1007.5 |
| 20260504205034 | 68 | 323 | 7.0 | 22.0 | 0.00 | 0.00 | 0.00 | 23 | 1007.5 |
| 20260504204538 | 68 | 28 | 6.0 | 25.0 | 0.00 | 0.00 | 0.00 | 23 | 1007.1 |
| 20260504204035 | 68 | 14 | 16.0 | 25.0 | 0.00 | 0.00 | 0.00 | 23 | 1007.0 |
| 20260504203535 | 69 | 19 | 14.0 | 27.0 | 0.00 | 0.00 | 0.00 | 22 | 1006.7 |
| 20260504203040 | 70 | 360 | 18.0 | 27.0 | 0.00 | 0.00 | 0.00 | 22 | 1006.7 |
| 20260504202532 | 71 | 5 | 13.0 | 19.0 | 0.00 | 0.00 | 0.00 | 20 | 1006.5 |
| 20260504202034 | 73 | 20 | 7.0 | 15.0 | 0.00 | 0.00 | 0.00 | 19 | 1006.6 |
| 20260504201558 | 74 | 329 | 8.0 | 16.0 | 0.00 | 0.00 | 0.00 | 18 | 1006.6 |
| 20260504201037 | 75 | 281 | 10.0 | 16.0 | 0.00 | 0.00 | 0.00 | 17 | 1006.6 |
| 20260504200533 | 75 | 301 | 7.0 | 17.0 | 0.00 | 0.00 | 0.00 | 16 | 1006.6 |
| 20260504200056 | 76 | 298 | 10.0 | 19.0 | 0.00 | 0.00 | 0.00 | 16 | 1006.7 |
| 20260504195533 | 76 | 321 | 9.0 | 19.0 | 0.00 | 0.00 | 0.00 | 14 | 1006.7 |
| 20260504195033 | 77 | 290 | 9.0 | 19.0 | 0.00 | 0.00 | 0.00 | 15 | 1006.6 |
| 20260504194553 | 77 | 344 | 10.0 | 19.0 | 0.00 | 0.00 | 0.00 | 14 | 1006.6 |
| 20260504194033 | 77 | 344 | 8.0 | 16.0 | 0.00 | 0.00 | 0.00 | 15 | 1006.6 |
| 20260504193534 | 77 | 303 | 9.0 | 17.0 | 0.00 | 0.00 | 0.00 | 14 | 1006.6 |
| 20260504193050 | 77 | 285 | 10.0 | 18.0 | 0.00 | 0.00 | 0.00 | 14 | 1006.6 |
| 20260504192533 | 77 | 294 | 9.0 | 18.0 | 0.00 | 0.00 | 0.00 | 14 | 1006.6 |
| 20260504192033 | 77 | 339 | 9.0 | 17.0 | 0.00 | 0.00 | 0.00 | 14 | 1006.5 |
| 20260504191557 | 77 | 299 | 8.0 | 17.0 | 0.00 | 0.00 | 0.00 | 15 | 1006.6 |
| 20260504191035 | 77 | 293 | 9.0 | 17.0 | 0.00 | 0.00 | 0.00 | 15 | 1006.6 |
| 20260504190536 | 77 | 269 | 10.0 | 20.0 | 0.00 | 0.00 | 0.00 | 15 | 1006.6 |
| 20260504190058 | 77 | 298 | 12.0 | 22.0 | 0.00 | 0.00 | 0.00 | 14 | 1006.6 |
| 20260504185536 | 77 | 314 | 9.0 | 22.0 | 0.00 | 0.00 | 0.00 | 15 | 1006.5 |
| 20260504185033 | 77 | 314 | 11.0 | 23.0 | 0.00 | 0.00 | 0.00 | 14 | 1006.5 |
| 20260504184608 | 77 | 331 | 10.0 | 23.0 | 0.00 | 0.00 | 0.00 | 14 | 1006.5 |
| 20260504184037 | 77 | 288 | 11.0 | 21.0 | 0.00 | 0.00 | 0.00 | 14 | 1006.7 |
| 20260504183534 | 76 | 296 | 10.0 | 21.0 | 0.00 | 0.00 | 0.00 | 15 | 1006.8 |
| 20260504183050 | 76 | 272 | 14.0 | 21.0 | 0.00 | 0.00 | 0.00 | 15 | 1006.8 |
| 20260504182533 | 76 | 297 | 11.0 | 20.0 | 0.00 | 0.00 | 0.00 | 15 | 1006.9 |
| 20260504182033 | 75 | 289 | 12.0 | 23.0 | 0.00 | 0.00 | 0.00 | 15 | 1007.0 |
| 20260504181551 | 75 | 296 | 13.0 | 23.0 | 0.00 | 0.00 | 0.00 | 17 | 1007.0 |
| 20260504181036 | 75 | 309 | 10.0 | 17.0 | 0.00 | 0.00 | 0.00 | 17 | 1007.0 |
| 20260504180534 | 74 | 301 | 10.0 | 17.0 | 0.00 | 0.00 | 0.00 | 17 | 1007.3 |
| 20260504180053 | 74 | 309 | 9.0 | 16.0 | 0.00 | 0.00 | 0.00 | 18 | 1007.4 |
| 20260504175534 | 74 | 335 | 11.0 | 17.0 | 0.00 | 0.00 | 0.00 | 19 | 1007.6 |
| 20260504175034 | 74 | 300 | 9.0 | 18.0 | 0.00 | 0.00 | 0.00 | 19 | 1007.7 |
| 20260504174545 | 74 | 305 | 11.0 | 18.0 | 0.00 | 0.00 | 0.00 | 19 | 1007.7 |
| 20260504174034 | 74 | 256 | 8.0 | 18.0 | 0.00 | 0.00 | 0.00 | 19 | 1007.8 |
| 20260504173536 | 74 | 286 | 9.0 | 19.0 | 0.00 | 0.00 | 0.00 | 19 | 1007.9 |
| 20260504173041 | 74 | 325 | 12.0 | 19.0 | 0.00 | 0.00 | 0.00 | 19 | 1007.9 |
| 20260504172533 | 74 | 291 | 11.0 | 22.0 | 0.00 | 0.00 | 0.00 | 20 | 1007.9 |
| 20260504172034 | 74 | 296 | 13.0 | 22.0 | 0.00 | 0.00 | 0.00 | 20 | 1008.0 |
| 20260504171557 | 74 | 323 | 12.0 | 21.0 | 0.00 | 0.00 | 0.00 | 20 | 1008.0 |
| 20260504171036 | 73 | 289 | 12.0 | 21.0 | 0.00 | 0.00 | 0.00 | 20 | 1008.2 |
| 20260504170534 | 73 | 294 | 9.0 | 19.0 | 0.00 | 0.00 | 0.00 | 21 | 1008.1 |
| 20260504151037 | 58 | 232 | 2.0 | 8.0 | 0.00 | 0.00 | 0.00 | 34 | 1008.5 |
| 20260504150536 | 58 | 235 | 3.0 | 8.0 | 0.00 | 0.00 | 0.00 | 34 | 1008.5 |
| 20260504141036 | 54 | 214 | 2.0 | 7.0 | 0.00 | 0.00 | 0.00 | 40 | 1008.8 |
| 20260504140538 | 53 | 254 | 2.0 | 7.0 | 0.00 | 0.00 | 0.00 | 42 | 1008.8 |
| 20260504140106 | 53 | 224 | 3.0 | 7.0 | 0.00 | 0.00 | 0.00 | 42 | 1008.7 |
| 20260504130533 | 46 | 246 | 2.0 | 5.0 | 0.00 | 0.00 | 0.00 | 54 | 1008.7 |
| 20260504110534 | 45 | 261 | 1.0 | 5.0 | 0.00 | 0.00 | 0.00 | 54 | 1008.7 |
| 20260504100533 | 44 | 0 | 0.0 | 3.0 | 0.00 | 0.00 | 0.00 | 52 | 1009.1 |